Time;durP1;ratioP1;P1;durP2;ratioP2;P2;SDS_P1;SDS_P2;PMS_P1;PMS_P2;Temp;Humidity;BMP_temperature;BMP_pressure;BME280_temperature;BME280_humidity;BME280_pressure;Samples;Min_cycle;Max_cycle;Signal;HPM_P1;HPM_P2
2023/10/07 00:00:33;;;;;;;2.60;0.43;;;;;;;12.61;59.88;100544.66;5362482;26;20072;-96
2023/10/07 00:03:03;;;;;;;0.62;0.62;;;;;;;12.75;59.89;100539.03;5325528;26;20034;-96
2023/10/07 00:05:32;;;;;;;0.10;0.10;;;;;;;12.93;59.89;100528.06;5319828;26;20035;-96
2023/10/07 00:08:16;;;;;;;0.00;0.00;;;;;;;12.73;59.89;100533.84;5341270;26;20082;-95
2023/10/07 00:10:48;;;;;;;0.00;0.00;;;;;;;12.78;59.89;100541.59;5343214;26;20060;-96
2023/10/07 00:13:20;;;;;;;0.55;0.52;;;;;;;12.45;59.87;100525.09;5376015;26;20051;-96
2023/10/07 00:15:48;;;;;;;;;;;;;;;12.54;59.87;100520.47;5318174;26;20032;-96
2023/10/07 00:18:13;;;;;;;0.73;0.73;;;;;;;12.49;59.87;100517.12;5332818;26;20010;-95
2023/10/07 00:20:49;;;;;;;0.52;0.52;;;;;;;12.64;59.87;100510.63;5313674;26;20388;-96
2023/10/07 00:23:28;;;;;;;0.30;0.30;;;;;;;12.47;59.87;100516.31;5337356;26;20742;-96
2023/10/07 00:26:00;;;;;;;0.00;0.00;;;;;;;12.46;59.87;100501.53;5325293;26;20067;-96
2023/10/07 00:29:12;;;;;;;0.00;0.00;;;;;;;12.50;59.87;100512.75;5345698;26;20028;-96
2023/10/07 00:32:15;;;;;;;0.00;0.00;;;;;;;12.60;59.88;100509.84;5382077;26;20056;-96
2023/10/07 00:34:49;;;;;;;0.00;0.00;;;;;;;12.64;59.88;100505.41;5385013;26;20031;-96
2023/10/07 00:37:30;;;;;;;0.00;0.00;;;;;;;12.18;59.85;100504.03;5364282;26;20110;-96
2023/10/07 01:23:54;;;;;;;1.02;0.35;;;;;;;12.12;59.85;100448.56;5398050;26;20067;-96
2023/10/07 01:26:23;;;;;;;0.00;0.00;;;;;;;12.03;59.85;100447.03;5336205;26;20070;-96
2023/10/07 01:28:56;;;;;;;0.10;0.10;;;;;;;11.89;59.83;100444.81;5337584;26;20060;-96
2023/10/07 01:39:54;;;;;;;0.00;0.00;;;;;;;12.11;59.85;100436.41;5315831;27;20070;-96
2023/10/07 01:42:36;;;;;;;0.00;0.00;;;;;;;11.94;59.84;100435.09;5275720;27;20025;-96
2023/10/07 01:45:19;;;;;;;0.08;0.08;;;;;;;12.06;59.85;100433.03;5292494;27;20236;-96
2023/10/07 01:47:49;;;;;;;0.20;0.20;;;;;;;11.96;59.84;100430.69;5258639;27;20035;-96
2023/10/07 01:50:23;;;;;;;0.00;0.00;;;;;;;12.05;59.84;100436.56;5271968;27;20036;-96
2023/10/07 01:52:55;;;;;;;0.00;0.00;;;;;;;11.96;59.84;100425.47;5271736;27;20081;-96
2023/10/07 01:55:27;;;;;;;0.20;0.20;;;;;;;11.82;59.83;100427.59;5272428;27;20041;-96
2023/10/07 01:57:58;;;;;;;0.00;0.00;;;;;;;12.03;59.84;100427.91;5251415;27;20049;-96
2023/10/07 02:00:52;;;;;;;0.00;0.00;;;;;;;12.16;59.85;100427.56;5259307;27;20112;-96
2023/10/07 02:03:49;;;;;;;0.25;0.10;;;;;;;12.16;59.85;100424.94;5314218;27;20041;-96
2023/10/07 02:09:42;;;;;;;0.00;0.00;;;;;;;11.94;59.84;100422.06;5300804;26;20062;-96
2023/10/07 02:12:55;;;;;;;0.10;0.10;;;;;;;12.04;59.84;100422.66;5324235;26;20042;-96
2023/10/07 02:18:54;;;;;;;0.15;0.15;;;;;;;11.83;59.84;100416.28;5322310;26;20071;-96
2023/10/07 02:22:27;;;;;;;0.20;0.20;;;;;;;11.76;59.83;100408.59;5362636;26;20058;-96
2023/10/07 02:25:07;;;;;;;0.70;0.20;;;;;;;11.88;59.84;100403.09;5289026;26;20057;-94
2023/10/07 02:27:41;;;;;;;0.00;0.00;;;;;;;11.99;59.84;100404.50;5319574;26;20084;-95
2023/10/07 02:30:16;;;;;;;0.70;0.70;;;;;;;11.93;59.84;100406.44;5314568;26;20792;-94
2023/10/07 02:32:42;;;;;;;0.00;0.00;;;;;;;11.89;59.83;100405.69;5310802;26;20474;-95
2023/10/07 02:35:09;;;;;;;0.05;0.05;;;;;;;11.86;59.84;100407.50;5289717;26;20653;-94
2023/10/07 02:37:38;;;;;;;0.00;0.00;;;;;;;11.95;59.84;100407.25;5326535;26;20118;-96
2023/10/07 02:40:35;;;;;;;0.00;0.00;;;;;;;11.84;59.84;100406.72;5291338;26;20842;-96
2023/10/07 02:43:07;;;;;;;0.40;0.35;;;;;;;11.93;59.84;100398.62;5318521;26;20654;-96
2023/10/07 02:45:42;;;;;;;0.00;0.00;;;;;;;11.80;59.83;100387.66;5293119;26;20059;-96
2023/10/07 02:48:11;;;;;;;0.43;0.30;;;;;;;11.76;59.83;100387.75;5292283;26;20458;-96
2023/10/07 02:50:40;;;;;;;0.47;0.47;;;;;;;11.93;59.84;100391.66;5290747;26;20071;-96
2023/10/07 02:53:12;;;;;;;0.82;0.80;;;;;;;11.65;59.82;100395.84;5309742;26;20048;-94
2023/10/07 02:55:54;;;;;;;0.20;0.20;;;;;;;11.87;59.83;100385.75;5292765;26;20083;-94
2023/10/07 02:58:36;;;;;;;0.00;0.00;;;;;;;11.83;59.84;100379.75;5296018;26;20357;-95
2023/10/07 03:01:25;;;;;;;0.03;0.03;;;;;;;11.82;59.83;100375.41;5330269;26;20077;-96
2023/10/07 03:03:50;;;;;;;0.05;0.05;;;;;;;11.75;59.83;100371.25;5316166;26;20064;-96
2023/10/07 03:06:46;;;;;;;0.00;0.00;;;;;;;11.68;59.83;100374.91;5297054;26;20124;-96
2023/10/07 03:09:33;;;;;;;0.00;0.00;;;;;;;11.88;59.83;100374.41;5355788;26;20061;-94
2023/10/07 03:12:04;;;;;;;0.13;0.13;;;;;;;11.73;59.83;100378.25;5295298;26;20048;-95
2023/10/07 03:14:29;;;;;;;0.00;0.00;;;;;;;11.77;59.83;100379.87;5296026;26;20035;-96
2023/10/07 03:17:01;;;;;;;0.90;0.85;;;;;;;11.68;59.83;100369.69;5300255;26;20028;-95
2023/10/07 03:19:46;;;;;;;3.90;1.37;;;;;;;11.66;59.82;100377.56;5300775;26;20020;-95
2023/10/07 03:22:15;;;;;;;0.28;0.28;;;;;;;12.07;59.85;100374.78;5298443;26;20020;-95
2023/10/07 03:24:41;;;;;;;0.47;0.28;;;;;;;12.12;59.85;100375.50;5294681;26;20020;-96
2023/10/07 03:27:21;;;;;;;0.10;0.10;;;;;;;12.12;59.85;100365.03;5314103;26;20025;-95
2023/10/07 03:29:59;;;;;;;0.03;0.03;;;;;;;12.08;59.85;100364.28;5295688;26;20076;-96
2023/10/07 03:32:32;;;;;;;0.00;0.00;;;;;;;12.23;59.86;100363.81;5297404;26;20062;-96
2023/10/07 03:35:16;;;;;;;2.08;0.90;;;;;;;11.71;59.83;100368.75;5314345;26;20586;-96
2023/10/07 03:37:44;;;;;;;0.45;0.20;;;;;;;11.87;59.83;100368.34;5303568;26;20163;-96
2023/10/07 03:40:25;;;;;;;0.00;0.00;;;;;;;11.93;59.84;100370.78;5291673;26;20717;-96
2023/10/07 03:42:51;;;;;;;0.00;0.00;;;;;;;11.98;59.85;100363.66;5295692;26;20823;-96
2023/10/07 03:45:17;;;;;;;0.10;0.10;;;;;;;11.96;59.84;100365.47;5291409;26;20048;-96
2023/10/07 03:47:46;;;;;;;4.12;1.00;;;;;;;11.98;59.85;100363.66;5295170;26;20056;-96
2023/10/07 03:50:29;;;;;;;0.00;0.00;;;;;;;11.89;59.83;100363.94;5297484;26;20113;-96
2023/10/07 03:52:58;;;;;;;0.00;0.00;;;;;;;11.98;59.84;100362.81;5355357;26;20056;-96
2023/10/07 03:55:27;;;;;;;0.00;0.00;;;;;;;11.99;59.84;100360.16;5334838;26;20037;-95
2023/10/07 03:57:55;;;;;;;0.30;0.20;;;;;;;12.00;59.85;100358.41;5297119;26;20067;-96
2023/10/07 04:00:21;;;;;;;0.00;0.00;;;;;;;12.13;59.84;100370.22;5291261;26;20024;-95
2023/10/07 04:02:47;;;;;;;2.10;1.65;;;;;;;12.06;59.85;100358.22;5308671;26;20025;-95
2023/10/07 04:05:12;;;;;;;0.00;0.00;;;;;;;11.90;59.84;100368.25;5290291;26;20040;-96
2023/10/07 04:07:39;;;;;;;0.30;0.30;;;;;;;11.84;59.84;100373.66;5290460;26;20060;-95
2023/10/07 04:10:12;;;;;;;1.75;1.27;;;;;;;12.04;59.84;100367.00;5290738;26;20061;-96
2023/10/07 04:12:40;;;;;;;0.20;0.20;;;;;;;12.05;59.84;100356.50;5295527;26;20035;-96
2023/10/07 04:15:12;;;;;;;0.40;0.30;;;;;;;11.83;59.84;100353.69;5330259;26;20057;-95
2023/10/07 04:17:38;;;;;;;1.30;0.90;;;;;;;11.72;59.83;100358.28;5306172;26;20024;-96
2023/10/07 04:23:00;;;;;;;0.00;0.00;;;;;;;11.84;59.84;100358.00;5340507;26;20118;-96
2023/10/07 04:25:27;;;;;;;0.00;0.00;;;;;;;11.92;59.84;100349.94;5319362;26;20040;-96
2023/10/07 04:27:54;;;;;;;0.32;0.32;;;;;;;11.75;59.83;100363.41;5299355;26;20076;-96
2023/10/07 04:30:38;;;;;;;2.42;0.68;;;;;;;11.78;59.83;100355.53;5337636;26;20718;-96
2023/10/07 04:33:08;;;;;;;0.00;0.00;;;;;;;11.69;59.83;100353.16;5332513;26;20435;-96
2023/10/07 04:35:33;;;;;;;0.00;0.00;;;;;;;11.96;59.83;100349.81;5291386;26;20087;-95
2023/10/07 04:38:09;;;;;;;0.00;0.00;;;;;;;11.80;59.82;100353.72;5308097;26;20244;-96
2023/10/07 04:41:30;;;;;;;2.47;1.30;;;;;;;11.92;59.84;100349.94;5294815;26;20135;-95
2023/10/07 04:49:55;;;;;;;0.30;0.30;;;;;;;11.62;59.82;100349.00;5362735;26;20063;-95
2023/10/07 04:52:30;;;;;;;0.20;0.20;;;;;;;11.75;59.82;100346.91;5336142;26;20024;-96
2023/10/07 04:55:01;;;;;;;0.00;0.00;;;;;;;11.58;59.82;100344.75;5330167;26;20418;-95
2023/10/07 05:15:38;;;;;;;0.60;0.60;;;;;;;11.61;59.82;100345.53;5154593;27;20039;-96
2023/10/07 05:18:47;;;;;;;0.75;0.75;;;;;;;11.78;59.83;100344.22;5137364;27;20027;-96
2023/10/07 05:21:15;;;;;;;0.00;0.00;;;;;;;12.03;59.84;100336.59;5135090;27;20059;-95
2023/10/07 05:23:41;;;;;;;0.25;0.25;;;;;;;12.23;59.86;100349.91;5125247;27;20066;-94
2023/10/07 05:26:09;;;;;;;0.45;0.28;;;;;;;12.15;59.85;100338.84;5241145;27;20076;-94
2023/10/07 05:28:34;;;;;;;1.08;0.25;;;;;;;12.40;59.86;100339.84;5281535;27;20118;-94
2023/10/07 05:31:03;;;;;;;0.62;0.62;;;;;;;12.31;59.87;100341.87;5263434;27;20148;-95
2023/10/07 05:33:32;;;;;;;0.10;0.10;;;;;;;12.39;59.87;100353.81;5263359;27;20067;-95
2023/10/07 05:36:08;;;;;;;0.10;0.10;;;;;;;12.33;59.86;100346.16;5264165;27;20829;-94
2023/10/07 05:38:35;;;;;;;0.47;0.47;;;;;;;12.51;59.87;100335.13;5264943;27;20134;-93
2023/10/07 05:41:01;;;;;;;0.20;0.20;;;;;;;12.67;59.88;100332.91;5263560;27;20111;-95
2023/10/07 05:43:28;;;;;;;0.00;0.00;;;;;;;12.96;59.89;100341.59;5264310;27;20075;-95
2023/10/07 05:45:54;;;;;;;0.30;0.30;;;;;;;13.02;59.89;100341.41;5264363;27;20231;-95
2023/10/07 05:48:21;;;;;;;0.20;0.17;;;;;;;13.13;59.90;100341.91;5283974;26;20060;-95
2023/10/07 05:50:46;;;;;;;0.13;0.13;;;;;;;13.32;59.91;100345.66;5290444;26;20032;-95
2023/10/07 05:53:11;;;;;;;0.98;0.98;;;;;;;13.51;59.93;100349.34;5290094;26;20052;-96
2023/10/07 05:55:39;;;;;;;0.15;0.15;;;;;;;13.71;59.93;100345.16;5289801;26;20064;-95
2023/10/07 05:58:04;;;;;;;0.00;0.00;;;;;;;13.69;59.93;100350.44;5310896;26;20071;-95
2023/10/07 06:00:33;;;;;;;1.05;0.95;;;;;;;13.96;59.95;100346.00;5289406;26;20053;-94
2023/10/07 06:03:02;;;;;;;0.20;0.20;;;;;;;14.00;59.95;100339.75;5288926;26;20048;-94
2023/10/07 06:05:29;;;;;;;0.98;0.70;;;;;;;14.16;59.96;100345.25;5307196;26;20734;-94
2023/10/07 06:07:57;;;;;;;0.17;0.17;;;;;;;14.17;59.95;100344.34;5288016;26;20064;-94
2023/10/07 06:10:24;;;;;;;0.43;0.43;;;;;;;14.35;59.97;100346.28;5287962;26;20072;-94
2023/10/07 06:12:50;;;;;;;0.22;0.20;;;;;;;14.39;59.97;100349.63;5287890;26;20617;-94
2023/10/07 06:15:16;;;;;;;0.43;0.43;;;;;;;14.43;59.97;100346.91;5287766;26;20704;-93
2023/10/07 06:17:42;;;;;;;0.75;0.75;;;;;;;14.71;60.00;100345.81;5287715;26;20061;-94
2023/10/07 06:20:17;;;;;;;0.30;0.30;;;;;;;14.83;59.99;100347.94;5287490;26;20067;-93
2023/10/07 06:22:45;;;;;;;1.05;1.02;;;;;;;14.82;59.99;100351.47;5314424;26;20890;-94
2023/10/07 06:25:15;;;;;;;0.62;0.62;;;;;;;15.03;60.01;100348.00;5307444;26;20704;-95
2023/10/07 06:27:43;;;;;;;0.62;0.47;;;;;;;15.05;60.01;100348.78;5289362;26;20079;-93
2023/10/07 06:30:20;;;;;;;0.52;0.35;;;;;;;15.24;60.01;100345.41;5289524;26;20057;-93
2023/10/07 06:32:54;;;;;;;0.95;0.75;;;;;;;15.27;60.01;100345.28;5308981;26;20053;-92
2023/10/07 06:35:23;;;;;;;0.98;0.47;;;;;;;15.28;60.02;100353.06;5290408;26;20662;-94
2023/10/07 06:37:51;;;;;;;0.30;0.30;;;;;;;15.43;60.02;100351.59;5325034;26;20257;-94
2023/10/07 06:40:31;;;;;;;1.17;1.08;;;;;;;15.56;60.04;100351.91;5288177;26;20542;-94
2023/10/07 06:42:58;;;;;;;0.43;0.40;;;;;;;15.54;60.03;100351.12;5325656;26;20401;-93
2023/10/07 06:45:35;;;;;;;0.47;0.47;;;;;;;15.67;60.04;100354.97;5287846;26;20160;-93
2023/10/07 06:48:02;;;;;;;1.65;1.55;;;;;;;15.77;60.04;100356.25;5289620;26;20065;-93
2023/10/07 06:50:28;;;;;;;0.57;0.28;;;;;;;15.95;60.06;100354.59;5325276;26;20068;-94
2023/10/07 06:52:57;;;;;;;0.25;0.25;;;;;;;16.02;60.06;100356.03;5288266;26;20459;-95
2023/10/07 06:55:22;;;;;;;1.80;0.90;;;;;;;16.14;60.07;100354.66;5289663;26;20057;-95
2023/10/07 06:57:48;;;;;;;0.20;0.20;;;;;;;16.18;60.07;100359.69;5288284;26;20084;-95
2023/10/07 07:00:25;;;;;;;0.95;0.95;;;;;;;16.21;60.07;100356.91;5308217;26;20101;-94
2023/10/07 07:03:09;;;;;;;0.50;0.35;;;;;;;16.45;60.08;100348.81;5292514;26;20162;-95
2023/10/07 07:05:35;;;;;;;0.30;0.30;;;;;;;16.52;60.08;100344.97;5329409;26;20444;-94
2023/10/07 07:08:03;;;;;;;0.10;0.10;;;;;;;16.70;60.09;100338.03;5289994;26;20078;-95
2023/10/07 07:10:30;;;;;;;0.47;0.47;;;;;;;16.96;60.11;100347.28;5290832;26;20056;-96
2023/10/07 07:12:59;;;;;;;0.22;0.22;;;;;;;17.17;60.12;100338.34;5290697;26;20020;-95
2023/10/07 07:15:28;;;;;;;0.00;0.00;;;;;;;17.24;60.12;100345.00;5326860;26;20075;-96
2023/10/07 07:18:14;;;;;;;0.00;0.00;;;;;;;17.49;60.14;100339.34;5290301;26;20085;-95
2023/10/07 07:20:49;;;;;;;0.10;0.10;;;;;;;17.76;60.14;100339.75;5320522;26;20047;-95
2023/10/07 07:23:16;;;;;;;1.20;1.10;;;;;;;17.92;60.16;100330.09;5289950;26;20166;-96
2023/10/07 07:25:50;;;;;;;1.95;0.95;;;;;;;17.90;60.15;100334.59;5290200;26;20064;-95
2023/10/07 07:28:17;;;;;;;0.75;0.75;;;;;;;18.05;60.16;100335.59;5291730;26;20064;-96
2023/10/07 07:30:43;;;;;;;5.85;1.02;;;;;;;18.08;60.17;100338.06;5290241;26;20487;-94
2023/10/07 07:33:11;;;;;;;0.55;0.55;;;;;;;18.18;60.17;100335.75;5289968;26;20169;-94
2023/10/07 07:35:43;;;;;;;1.35;1.00;;;;;;;18.56;60.19;100346.84;5290558;26;20060;-94
2023/10/07 07:38:58;;;;;;;0.03;0.03;;;;;;;18.64;60.20;100337.59;5327052;26;20087;-94
2023/10/07 07:41:26;;;;;;;;;;;;;;;18.64;60.20;100342.03;5295266;26;20052;-93
2023/10/07 07:43:51;;;;;;;0.10;0.10;;;;;;;18.83;60.21;100342.69;5329099;26;20018;-95
2023/10/07 07:46:26;;;;;;;0.37;0.37;;;;;;;18.97;60.21;100345.41;5289515;26;20064;-95
2023/10/07 07:48:53;;;;;;;0.75;0.75;;;;;;;19.05;60.21;100344.12;5327523;26;20061;-93
2023/10/07 07:51:24;;;;;;;0.88;0.40;;;;;;;19.39;60.24;100345.63;5290342;26;20038;-96
2023/10/07 07:53:49;;;;;;;0.00;0.00;;;;;;;19.45;60.24;100340.00;5290834;26;20102;-95
2023/10/07 07:56:15;;;;;;;0.40;0.40;;;;;;;19.43;60.23;100340.09;5289179;26;20135;-94
2023/10/07 07:58:41;;;;;;;0.80;0.40;;;;;;;19.62;60.25;100340.72;5307919;26;20060;-94
2023/10/07 08:01:15;;;;;;;1.02;0.52;;;;;;;19.75;60.25;100330.28;5289000;26;20067;-94
2023/10/07 08:03:41;;;;;;;0.50;0.30;;;;;;;19.82;60.26;100328.94;5279025;27;20057;-94
2023/10/07 08:06:06;;;;;;;0.15;0.15;;;;;;;19.83;60.26;100329.81;5285322;27;20334;-94
2023/10/07 08:08:36;;;;;;;0.25;0.25;;;;;;;19.99;60.26;100335.00;5325770;26;20325;-94
2023/10/07 08:11:02;;;;;;;0.00;0.00;;;;;;;20.29;60.28;100337.53;5290101;26;20130;-94
2023/10/07 08:13:28;;;;;;;0.52;0.52;;;;;;;20.50;60.30;100330.91;5325742;26;20049;-94
2023/10/07 08:15:54;;;;;;;0.80;0.57;;;;;;;20.58;60.30;100323.31;5307614;26;20151;-94
2023/10/07 08:18:28;;;;;;;0.22;0.20;;;;;;;20.53;60.29;100331.56;5289563;26;20095;-94
2023/10/07 08:21:06;;;;;;;2.17;1.05;;;;;;;20.86;60.32;100325.06;5291862;26;20478;-95
2023/10/07 08:23:36;;;;;;;0.20;0.20;;;;;;;20.91;60.31;100325.59;5298021;26;20098;-94
2023/10/07 08:26:10;;;;;;;0.20;0.20;;;;;;;20.65;60.30;100319.38;5290343;26;20143;-95
2023/10/07 08:28:44;;;;;;;0.70;0.70;;;;;;;20.81;60.31;100316.53;5292150;26;20151;-95
2023/10/07 08:31:14;;;;;;;0.37;0.37;;;;;;;20.74;60.31;100320.56;5292201;26;20051;-96
2023/10/07 08:33:40;;;;;;;0.37;0.25;;;;;;;20.55;60.29;100318.25;5308691;26;20504;-95
2023/10/07 08:36:07;;;;;;;0.47;0.32;;;;;;;20.56;60.30;100313.81;5327298;26;20073;-94
2023/10/07 08:38:50;;;;;;;0.25;0.25;;;;;;;20.58;60.30;100304.81;5290348;26;20048;-96
2023/10/07 08:41:18;;;;;;;0.20;0.20;;;;;;;20.80;60.31;100307.75;5294825;26;20052;-95
2023/10/07 08:43:45;;;;;;;0.22;0.22;;;;;;;20.71;60.31;100310.19;5291299;26;20071;-96
2023/10/07 08:46:20;;;;;;;0.22;0.10;;;;;;;20.82;60.31;100308.53;5290356;26;20197;-96
2023/10/07 08:48:50;;;;;;;0.00;0.00;;;;;;;20.70;60.31;100306.69;5291570;26;20086;-95
2023/10/07 08:51:25;;;;;;;0.98;0.80;;;;;;;20.80;60.32;100305.13;5290787;26;20064;-95
2023/10/07 08:54:04;;;;;;;0.00;0.00;;;;;;;21.00;60.32;100301.16;5311643;26;20060;-93
2023/10/07 08:56:30;;;;;;;1.03;0.77;;;;;;;21.30;60.33;100300.97;5312881;26;20072;-95
2023/10/07 08:58:56;;;;;;;1.55;1.45;;;;;;;21.43;60.34;100295.66;5289472;26;20091;-94
2023/10/07 09:01:24;;;;;;;10.90;1.15;;;;;;;21.64;60.36;100291.53;5289460;26;20107;-94
2023/10/07 09:03:52;;;;;;;2.53;0.55;;;;;;;21.74;60.36;100291.75;5291213;26;20178;-96
2023/10/07 09:06:19;;;;;;;1.35;0.95;;;;;;;21.82;60.36;100293.88;5291027;26;20033;-94
2023/10/07 09:08:45;;;;;;;4.22;1.12;;;;;;;21.97;60.37;100293.63;5290296;26;20745;-94
2023/10/07 09:11:13;;;;;;;0.70;0.70;;;;;;;22.35;60.39;100284.78;5289200;26;20104;-94
2023/10/07 09:13:39;;;;;;;0.40;0.25;;;;;;;22.48;60.41;100288.25;5291118;26;20052;-94
2023/10/07 09:16:07;;;;;;;1.58;1.05;;;;;;;22.62;60.40;100279.25;5308414;26;20056;-95
2023/10/07 09:18:37;;;;;;;1.20;0.65;;;;;;;22.85;60.42;100289.06;5291025;26;20064;-96
2023/10/07 09:21:09;;;;;;;0.85;0.25;;;;;;;22.99;60.43;100280.06;5291245;26;20056;-96
2023/10/07 09:23:43;;;;;;;0.22;0.22;;;;;;;23.17;60.43;100278.66;5306123;27;20037;-95
2023/10/07 09:26:21;;;;;;;0.40;0.40;;;;;;;23.31;60.45;100276.78;5290668;26;20028;-96
2023/10/07 09:28:51;;;;;;;0.15;0.15;;;;;;;23.24;60.44;100276.41;5293615;26;20083;-95
2023/10/07 09:31:23;;;;;;;0.52;0.22;;;;;;;23.17;60.43;100273.34;5291437;26;20069;-96
2023/10/07 09:33:49;;;;;;;0.40;0.40;;;;;;;23.12;60.44;100277.31;5328638;26;20048;-95
2023/10/07 09:42:10;;;;;;;0.30;0.30;;;;;;;23.25;60.44;100273.63;5308687;26;20105;-96
2023/10/07 09:44:37;;;;;;;0.00;0.00;;;;;;;23.34;60.44;100264.09;5293497;26;20052;-96
2023/10/07 09:47:09;;;;;;;10.45;0.47;;;;;;;23.51;60.46;100261.00;5291919;26;20084;-95
2023/10/07 09:49:36;;;;;;;0.17;0.17;;;;;;;23.48;60.45;100261.25;5292583;26;20065;-95
2023/10/07 09:52:29;;;;;;;3.30;0.98;;;;;;;23.67;60.47;100252.72;5290812;26;20066;-95
2023/10/07 09:55:38;;;;;;;0.95;0.90;;;;;;;23.82;60.48;100256.81;5316296;26;20119;-95
2023/10/07 09:58:34;;;;;;;0.15;0.10;;;;;;;24.06;60.49;100256.66;5315682;26;20068;-95
2023/10/07 10:01:37;;;;;;;0.10;0.10;;;;;;;23.94;60.48;100262.12;5293098;26;20064;-94
2023/10/07 10:04:11;;;;;;;0.00;0.00;;;;;;;24.00;60.49;100249.19;5332061;26;20166;-95
2023/10/07 10:07:18;;;;;;;0.25;0.22;;;;;;;23.98;60.49;100252.94;5327303;26;20640;-93
2023/10/07 10:12:56;;;;;;;0.82;0.82;;;;;;;23.88;60.47;100250.16;5314371;26;20147;-96
2023/10/07 10:18:35;;;;;;;0.88;0.57;;;;;;;24.37;60.51;100239.12;5328192;26;20116;-93
2023/10/07 10:21:05;;;;;;;0.10;0.10;;;;;;;24.30;60.50;100243.25;5316360;26;20418;-96
2023/10/07 10:23:34;;;;;;;0.47;0.47;;;;;;;24.14;60.50;100238.31;5301688;26;20060;-95
2023/10/07 10:26:14;;;;;;;0.52;0.52;;;;;;;24.19;60.49;100229.94;5295777;26;20063;-96
2023/10/07 10:29:00;;;;;;;1.10;0.93;;;;;;;24.34;60.50;100227.88;5351285;26;20603;-96
2023/10/07 10:31:32;;;;;;;0.10;0.10;;;;;;;24.44;60.50;100218.19;5290874;26;20434;-95
2023/10/07 10:34:04;;;;;;;0.62;0.40;;;;;;;24.23;60.50;100228.72;5292677;26;20039;-94
2023/10/07 10:36:31;;;;;;;0.10;0.10;;;;;;;24.41;60.50;100221.09;5293190;26;20405;-96
2023/10/07 10:39:00;;;;;;;0.03;0.00;;;;;;;24.68;60.51;100220.63;5347372;26;20044;-93
2023/10/07 10:41:29;;;;;;;0.00;0.00;;;;;;;24.74;60.52;100214.78;5291878;26;20035;-94
2023/10/07 10:44:06;;;;;;;0.20;0.15;;;;;;;24.64;60.52;100214.72;5290759;26;20068;-96
2023/10/07 10:46:44;;;;;;;0.25;0.25;;;;;;;24.66;60.52;100218.09;5291290;26;20024;-96
2023/10/07 10:49:16;;;;;;;0.30;0.30;;;;;;;24.84;60.53;100212.19;5292791;26;20052;-96
2023/10/07 10:51:48;;;;;;;1.80;1.35;;;;;;;24.98;60.55;100207.38;5291626;26;20029;-94
2023/10/07 10:54:21;;;;;;;0.20;0.20;;;;;;;25.22;60.54;100204.50;5292001;26;20060;-95
2023/10/07 10:56:57;;;;;;;0.25;0.25;;;;;;;25.08;60.55;100192.38;5291716;26;20056;-95
2023/10/07 10:59:44;;;;;;;4.87;0.45;;;;;;;25.03;60.54;100197.22;5290643;26;20071;-92
2023/10/07 11:02:23;;;;;;;0.52;0.45;;;;;;;25.25;60.55;100182.91;5329918;26;20619;-94
2023/10/07 11:04:55;;;;;;;0.10;0.10;;;;;;;25.29;60.55;100176.31;5292780;26;20064;-95
2023/10/07 11:07:23;;;;;;;0.28;0.28;;;;;;;25.53;60.56;100168.03;5292952;26;20835;-95
2023/10/07 11:09:51;;;;;;;0.13;0.13;;;;;;;25.59;60.56;100172.00;5291727;26;20043;-96
2023/10/07 11:12:17;;;;;;;0.08;0.08;;;;;;;25.98;60.59;100168.47;5310606;26;20061;-96
2023/10/07 11:14:43;;;;;;;0.43;0.43;;;;;;;26.26;60.61;100160.62;5291492;26;20155;-96
2023/10/07 11:17:09;;;;;;;3.33;0.62;;;;;;;26.37;60.61;100155.22;5292142;26;20078;-95
2023/10/07 11:19:44;;;;;;;0.10;0.10;;;;;;;26.34;60.61;100155.50;5279766;27;20090;-94
2023/10/07 11:22:19;;;;;;;0.25;0.00;;;;;;;26.42;60.61;100150.28;5288931;26;20673;-96
2023/10/07 11:24:50;;;;;;;0.57;0.57;;;;;;;26.52;60.62;100150.31;5337227;26;20079;-96
2023/10/07 11:27:26;;;;;;;0.00;0.00;;;;;;;26.39;60.61;100158.59;5293061;26;20701;-96
2023/10/07 11:30:02;;;;;;;1.65;0.73;;;;;;;26.19;60.61;100147.00;5292662;26;20020;-96
2023/10/07 11:32:39;;;;;;;0.32;0.28;;;;;;;26.19;60.60;100141.69;5293951;26;20084;-95
2023/10/07 11:35:27;;;;;;;0.70;0.50;;;;;;;26.29;60.61;100136.38;5328691;26;20066;-96
2023/10/07 11:37:59;;;;;;;0.35;0.30;;;;;;;26.23;60.60;100140.41;5332348;26;20043;-96
2023/10/07 11:40:25;;;;;;;0.25;0.25;;;;;;;26.41;60.61;100143.25;5330127;26;20034;-95
2023/10/07 11:42:52;;;;;;;0.17;0.17;;;;;;;26.47;60.61;100140.03;5293628;26;20029;-96
2023/10/07 11:45:49;;;;;;;;;;;;;;;;;;;;;
2023/10/07 11:48:25;;;;;;;0.45;0.40;;;;;;;26.60;60.62;100135.25;5315270;26;38293;-96
2023/10/07 11:50:51;;;;;;;1.20;0.05;;;;;;;26.71;60.63;100128.06;5308824;26;20109;-96
2023/10/07 11:53:19;;;;;;;0.75;0.65;;;;;;;26.63;60.62;100128.78;5291701;26;20116;-94
2023/10/07 11:55:46;;;;;;;1.12;0.30;;;;;;;26.47;60.61;100124.00;5294276;26;20705;-96
2023/10/07 11:58:15;;;;;;;0.00;0.00;;;;;;;26.51;60.62;100130.78;5292306;26;20063;-96
2023/10/07 12:00:42;;;;;;;1.35;1.05;;;;;;;26.47;60.61;100132.00;5291399;26;20062;-96
2023/10/07 12:03:25;;;;;;;0.40;0.40;;;;;;;26.51;60.62;100130.78;5294837;26;20078;-96
2023/10/07 12:05:58;;;;;;;1.35;0.90;;;;;;;26.47;60.63;100128.50;5327923;26;20064;-96
2023/10/07 12:08:24;;;;;;;0.50;0.40;;;;;;;26.35;60.62;100127.81;5327172;26;20601;-95
2023/10/07 12:10:51;;;;;;;0.20;0.20;;;;;;;26.44;60.62;100118.13;5287782;26;20120;-96
2023/10/07 12:13:41;;;;;;;0.30;0.30;;;;;;;26.50;60.63;100123.75;5292278;26;20080;-96
2023/10/07 12:16:07;;;;;;;0.45;0.45;;;;;;;26.39;60.63;100113.19;5292886;26;20132;-96
2023/10/07 12:18:33;;;;;;;2.53;0.15;;;;;;;26.43;60.62;100116.44;5290471;26;20052;-94
2023/10/07 12:21:00;;;;;;;0.75;0.55;;;;;;;26.40;60.62;100104.22;5290110;26;20070;-96
2023/10/07 12:26:56;;;;;;;0.10;0.10;;;;;;;26.52;60.62;100121.78;5307640;26;20040;-96
2023/10/07 12:29:23;;;;;;;1.23;0.77;;;;;;;26.34;60.62;100114.59;5291922;26;20074;-96
2023/10/07 12:31:50;;;;;;;0.00;0.00;;;;;;;26.19;60.62;100108.81;5292371;26;20057;-96
2023/10/07 12:34:16;;;;;;;0.10;0.05;;;;;;;25.96;60.59;100108.25;5326394;26;20025;-96
2023/10/07 12:36:45;;;;;;;0.00;0.00;;;;;;;25.71;60.59;100104.25;5328720;26;20476;-96
2023/10/07 12:39:11;;;;;;;0.10;0.10;;;;;;;25.84;60.59;100096.03;5291633;26;20095;-95
2023/10/07 12:41:38;;;;;;;0.08;0.08;;;;;;;25.62;60.59;100105.06;5290968;26;20121;-96
2023/10/07 12:44:08;;;;;;;1.20;0.47;;;;;;;25.54;60.58;100110.22;5309196;26;20058;-96
2023/10/07 12:46:34;;;;;;;4.80;0.77;;;;;;;25.52;60.58;100110.34;5291929;26;20068;-96
2023/10/07 12:48:59;;;;;;;0.20;0.20;;;;;;;25.50;60.57;100100.81;5290688;26;20127;-96
2023/10/07 12:51:25;;;;;;;0.55;0.50;;;;;;;25.54;60.58;100107.56;5290538;26;20366;-96
2023/10/07 12:53:55;;;;;;;0.32;0.32;;;;;;;25.60;60.58;100097.22;5290746;26;20448;-96
2023/10/07 12:56:21;;;;;;;0.00;0.00;;;;;;;25.69;60.58;100100.91;5292528;26;20069;-93
2023/10/07 12:58:46;;;;;;;0.25;0.25;;;;;;;25.60;60.58;100096.38;5289673;26;20105;-95
2023/10/07 13:01:12;;;;;;;0.25;0.25;;;;;;;25.66;60.58;100096.66;5289795;26;20104;-93
2023/10/07 13:03:45;;;;;;;0.00;0.00;;;;;;;25.69;60.59;100096.41;5288875;26;20068;-94
2023/10/07 13:06:11;;;;;;;0.25;0.25;;;;;;;25.77;60.58;100100.19;5289014;26;20080;-94
2023/10/07 13:09:03;;;;;;;0.07;0.07;;;;;;;25.90;60.59;100095.47;5289120;26;20056;-93
2023/10/07 13:14:41;;;;;;;1.08;0.98;;;;;;;25.77;60.60;100110.88;5309200;26;20064;-94
2023/10/07 13:17:06;;;;;;;0.13;0.13;;;;;;;25.80;60.59;100100.78;5288708;26;20078;-91
2023/10/07 13:19:35;;;;;;;0.00;0.00;;;;;;;25.74;60.59;100093.31;5306072;26;20043;-94
2023/10/07 13:22:01;;;;;;;0.00;0.00;;;;;;;25.55;60.58;100099.44;5289321;26;20671;-93
2023/10/07 13:24:29;;;;;;;0.32;0.32;;;;;;;25.38;60.57;100100.94;5288652;26;20107;-94
2023/10/07 13:26:55;;;;;;;0.62;0.62;;;;;;;25.18;60.56;100101.81;5294695;26;20069;-94
2023/10/07 13:29:20;;;;;;;0.25;0.25;;;;;;;25.09;60.56;100097.31;5289325;26;20056;-93
2023/10/07 13:31:46;;;;;;;0.65;0.55;;;;;;;25.00;60.55;100087.44;5288484;26;20064;-95
2023/10/07 13:34:12;;;;;;;1.52;0.60;;;;;;;24.90;60.54;100086.53;5288472;26;20087;-94
2023/10/07 13:36:38;;;;;;;0.65;0.45;;;;;;;25.01;60.55;100075.81;5288562;26;20106;-93